createdAt,value
2019-03-21T00:00:29.463Z,103891.00
2019-03-21T00:02:11.178Z,103886.00
2019-03-21T00:03:48.362Z,103884.00
2019-03-21T00:05:25.749Z,103885.00
2019-03-21T00:07:01.133Z,103885.00
2019-03-21T00:08:36.513Z,103883.00
2019-03-21T00:10:16.501Z,103883.00
2019-03-21T00:11:58.273Z,103879.00
2019-03-21T00:13:33.650Z,103877.00
2019-03-21T00:15:19.756Z,103873.00
2019-03-21T00:16:55.141Z,103874.00
2019-03-21T00:18:31.590Z,103876.00
2019-03-21T00:20:16.718Z,103872.00
2019-03-21T00:21:52.089Z,103874.00
2019-03-21T00:23:27.472Z,103875.00
2019-03-21T00:25:03.135Z,103867.00
2019-03-21T00:26:38.526Z,103867.00
2019-03-21T00:28:13.903Z,103878.00
2019-03-21T00:29:49.286Z,103868.00
2019-03-21T00:31:24.984Z,103867.00
2019-03-21T00:33:00.532Z,103873.00
2019-03-21T00:34:35.899Z,103862.00
2019-03-21T00:36:11.296Z,103861.00
2019-03-21T00:37:46.847Z,103869.00
2019-03-21T00:39:32.427Z,103842.00
2019-03-21T00:41:00.270Z,103864.00
2019-03-21T00:42:35.665Z,103857.00
2019-03-21T00:44:18.042Z,103854.00
2019-03-21T00:45:48.125Z,103845.00
2019-03-21T00:47:23.513Z,103840.00
2019-03-21T00:48:58.888Z,103853.00
2019-03-21T00:50:34.627Z,103838.00
2019-03-21T00:52:10.017Z,103839.00
2019-03-21T00:53:45.384Z,103842.00
2019-03-21T00:55:21.296Z,103833.00
2019-03-21T00:56:56.691Z,103837.00
2019-03-21T00:58:32.426Z,103834.00
2019-03-21T01:00:18.274Z,103836.00
2019-03-21T01:01:53.657Z,103825.00
2019-03-21T01:03:29.029Z,103836.00
2019-03-21T01:05:06.578Z,103834.00
2019-03-21T01:06:41.969Z,103829.00
2019-03-21T01:08:17.350Z,103824.00
2019-03-21T01:09:52.727Z,103824.00
2019-03-21T01:11:29.081Z,103823.00
2019-03-21T01:13:04.455Z,103816.00
2019-03-21T01:14:39.826Z,103809.00
2019-03-21T01:16:15.214Z,103812.00
2019-03-21T01:17:50.589Z,103809.00
2019-03-21T01:19:25.960Z,103817.00
2019-03-21T01:21:01.340Z,103813.00
2019-03-21T01:22:36.735Z,103812.00
2019-03-21T01:24:12.111Z,103810.00
2019-03-21T01:25:52.008Z,103805.00
2019-03-21T01:27:28.362Z,103809.00
2019-03-21T01:29:03.730Z,103813.00
2019-03-21T01:30:39.110Z,103813.00
2019-03-21T01:32:14.491Z,103801.00
2019-03-21T01:33:49.878Z,103807.00
2019-03-21T01:35:25.254Z,103810.00
2019-03-21T01:37:00.648Z,103804.00
2019-03-21T01:38:36.037Z,103798.00
2019-03-21T01:40:18.736Z,103798.00
2019-03-21T01:41:54.127Z,103796.00
2019-03-21T01:43:29.497Z,103798.00
2019-03-21T01:45:09.927Z,103803.00
2019-03-21T01:46:45.306Z,103803.00
2019-03-21T01:48:20.697Z,103800.00
2019-03-21T01:49:56.070Z,103791.00
2019-03-21T01:51:31.444Z,103790.00
2019-03-21T01:53:07.811Z,103788.00
2019-03-21T01:54:43.182Z,103795.00
2019-03-21T01:56:18.568Z,103790.00
2019-03-21T01:57:53.955Z,103788.00
2019-03-21T01:59:29.335Z,103782.00
2019-03-21T02:01:05.049Z,103786.00
2019-03-21T02:02:40.612Z,103792.00
2019-03-21T02:04:15.990Z,103788.00
2019-03-21T02:05:51.373Z,103794.00
2019-03-21T02:07:26.760Z,103787.00
2019-03-21T02:09:02.140Z,103777.00
2019-03-21T02:10:38.589Z,103782.00
2019-03-21T02:12:13.976Z,103783.00
2019-03-21T02:13:49.351Z,103790.00
2019-03-21T02:15:25.031Z,103787.00
2019-03-21T02:17:00.485Z,103792.00
2019-03-21T02:18:35.875Z,103790.00
2019-03-21T02:20:17.635Z,103787.00
2019-03-21T02:21:53.017Z,103785.00
2019-03-21T02:23:28.477Z,103783.00
2019-03-21T02:25:05.389Z,103789.00
2019-03-21T02:26:40.775Z,103792.00
2019-03-21T02:28:16.432Z,103785.00
2019-03-21T02:29:51.799Z,103798.00
2019-03-21T02:31:28.156Z,103789.00
2019-03-21T02:33:30.540Z,103789.00
2019-03-21T02:35:08.021Z,103783.00
2019-03-21T02:36:43.638Z,103790.00
2019-03-21T02:38:19.026Z,103782.00
2019-03-21T02:40:00.021Z,103793.00
2019-03-21T02:41:31.620Z,103794.00
2019-03-21T02:43:07.012Z,103797.00
2019-03-21T02:44:42.546Z,103801.00
2019-03-21T02:46:18.248Z,103799.00
2019-03-21T02:47:53.672Z,103795.00
2019-03-21T02:49:29.046Z,103799.00
2019-03-21T02:51:05.161Z,103800.00
2019-03-21T02:52:40.554Z,103803.00
2019-03-21T02:54:15.927Z,103798.00
2019-03-21T02:55:51.557Z,103804.00
2019-03-21T02:57:26.940Z,103805.00
2019-03-21T02:59:02.592Z,103798.00
2019-03-21T03:00:43.203Z,103803.00
2019-03-21T03:02:18.676Z,103796.00
2019-03-21T03:03:54.038Z,103797.00
2019-03-21T03:05:34.533Z,103788.00
2019-03-21T03:07:10.410Z,103800.00
2019-03-21T03:08:45.789Z,103800.00
2019-03-21T03:10:36.635Z,103797.00
2019-03-21T03:12:12.010Z,103802.00
2019-03-21T03:13:50.510Z,103800.00
2019-03-21T03:15:38.062Z,103799.00
2019-03-21T03:17:13.446Z,103801.00
2019-03-21T03:18:48.905Z,103803.00
2019-03-21T03:20:24.294Z,103805.00
2019-03-21T03:21:59.671Z,103802.00
2019-03-21T03:23:35.061Z,103796.00
2019-03-21T03:25:16.967Z,103805.00
2019-03-21T03:26:52.683Z,103810.00
2019-03-21T03:28:36.356Z,103803.00
2019-03-21T03:30:16.347Z,103810.00
2019-03-21T03:31:51.815Z,103812.00
2019-03-21T03:33:27.868Z,103814.00
2019-03-21T03:35:03.670Z,103807.00
2019-03-21T03:36:39.040Z,103802.00
2019-03-21T03:38:14.437Z,103813.00
2019-03-21T03:39:49.812Z,103808.00
2019-03-21T03:41:25.197Z,103806.00
2019-03-21T03:43:00.581Z,103804.00
2019-03-21T03:44:35.953Z,103802.00
2019-03-21T03:46:12.089Z,103805.00
2019-03-21T03:47:47.471Z,103802.00
2019-03-21T03:49:22.847Z,103802.00
2019-03-21T03:50:58.236Z,103811.00
2019-03-21T03:52:34.590Z,103806.00
2019-03-21T03:54:09.977Z,103812.00
2019-03-21T03:55:45.494Z,103810.00
2019-03-21T03:57:20.870Z,103811.00
2019-03-21T03:59:07.558Z,103829.00
2019-03-21T04:00:42.940Z,103817.00
2019-03-21T04:02:18.333Z,103824.00
2019-03-21T04:03:53.717Z,103814.00
2019-03-21T04:05:29.091Z,103815.00
2019-03-21T04:07:04.463Z,103821.00
2019-03-21T04:08:39.854Z,103816.00
2019-03-21T04:10:37.071Z,103815.00
2019-03-21T04:12:12.524Z,103821.00
2019-03-21T04:13:47.914Z,103820.00
2019-03-21T04:15:24.351Z,103824.00
2019-03-21T04:16:59.729Z,103814.00
2019-03-21T04:18:35.119Z,103817.00
2019-03-21T04:20:21.145Z,103810.00
2019-03-21T04:21:56.536Z,103812.00
2019-03-21T04:23:31.930Z,103810.00
2019-03-21T04:25:18.046Z,103816.00
2019-03-21T04:26:53.468Z,103812.00
2019-03-21T04:28:28.809Z,103811.00
2019-03-21T04:30:07.367Z,103824.00
2019-03-21T04:31:43.149Z,103817.00
2019-03-21T04:33:18.789Z,103819.00
2019-03-21T04:34:54.166Z,103820.00
2019-03-21T04:36:29.537Z,103820.00
2019-03-21T04:38:04.912Z,103810.00
2019-03-21T04:39:40.296Z,103820.00
2019-03-21T04:41:15.976Z,103813.00
2019-03-21T04:42:51.341Z,103814.00
2019-03-21T04:44:26.725Z,103812.00
2019-03-21T04:46:03.622Z,103816.00
2019-03-21T04:47:39.370Z,103824.00
2019-03-21T04:49:14.755Z,103821.00
2019-03-21T04:50:50.140Z,103822.00
2019-03-21T04:52:25.530Z,103822.00
2019-03-21T04:54:00.929Z,103817.00
2019-03-21T04:55:36.301Z,103811.00
2019-03-21T04:57:11.673Z,103822.00
2019-03-21T04:58:47.044Z,103816.00
2019-03-21T05:00:41.325Z,103816.00
2019-03-21T05:02:17.023Z,103814.00
2019-03-21T05:03:53.466Z,103815.00
2019-03-21T05:05:28.839Z,103811.00
2019-03-21T05:07:04.206Z,103816.00
2019-03-21T05:08:39.585Z,103818.00
2019-03-21T05:10:18.466Z,103821.00
2019-03-21T05:11:53.847Z,103818.00
2019-03-21T05:13:29.225Z,103819.00
2019-03-21T05:15:07.399Z,103830.00
2019-03-21T05:16:42.761Z,103841.00
2019-03-21T05:18:31.508Z,103833.00
2019-03-21T05:20:11.486Z,103835.00
2019-03-21T05:21:47.023Z,103838.00
2019-03-21T05:23:22.514Z,103836.00
2019-03-21T05:24:57.896Z,103843.00
2019-03-21T05:26:33.267Z,103850.00
2019-03-21T05:28:09.607Z,103840.00
2019-03-21T05:29:45.870Z,103845.00
2019-03-21T05:31:31.730Z,103852.00
2019-03-21T05:33:07.082Z,103857.00
2019-03-21T05:34:42.726Z,103849.00
2019-03-21T05:36:18.101Z,103856.00
2019-03-21T05:37:53.467Z,103859.00
2019-03-21T05:39:28.841Z,103862.00
2019-03-21T05:41:04.200Z,103866.00
2019-03-21T05:42:41.648Z,103851.00
2019-03-21T05:44:27.846Z,103863.00
2019-03-21T05:46:03.208Z,103863.00
2019-03-21T05:47:38.939Z,103864.00
2019-03-21T05:49:14.306Z,103864.00
2019-03-21T05:50:49.663Z,103866.00
2019-03-21T05:52:25.034Z,103863.00
2019-03-21T05:54:00.419Z,103866.00
2019-03-21T05:55:35.772Z,103874.00
2019-03-21T05:57:11.140Z,103873.00
2019-03-21T05:58:46.519Z,103869.00
2019-03-21T06:00:32.381Z,103868.00
2019-03-21T06:02:08.002Z,103869.00
2019-03-21T06:03:51.406Z,103865.00
2019-03-21T06:05:28.097Z,103875.00
2019-03-21T06:07:22.731Z,103873.00
2019-03-21T06:08:58.413Z,103882.00
2019-03-21T06:10:33.794Z,103875.00
2019-03-21T06:12:09.440Z,103866.00
2019-03-21T06:13:45.149Z,103872.00
2019-03-21T06:15:27.899Z,103871.00
2019-03-21T06:17:03.271Z,103885.00
2019-03-21T06:18:46.891Z,103883.00
2019-03-21T06:20:50.622Z,103890.00
2019-03-21T06:22:42.282Z,103895.00
2019-03-21T06:24:31.803Z,103891.00
2019-03-21T06:26:29.641Z,103893.00
2019-03-21T06:28:05.027Z,103902.00
2019-03-21T06:29:40.739Z,103898.00
2019-03-21T06:31:17.096Z,103908.00
2019-03-21T06:32:52.489Z,103894.00
2019-03-21T06:34:28.154Z,103904.00
2019-03-21T06:36:04.597Z,103901.00
2019-03-21T06:37:40.282Z,103903.00
2019-03-21T06:39:16.941Z,103909.00
2019-03-21T06:40:52.329Z,103901.00
2019-03-21T06:42:27.705Z,103903.00
2019-03-21T06:44:03.084Z,103902.00
2019-03-21T06:45:47.523Z,103903.00
2019-03-21T06:47:15.539Z,103905.00
2019-03-21T06:48:50.915Z,103905.00
2019-03-21T06:50:26.309Z,103905.00
2019-03-21T06:52:01.692Z,103911.00
2019-03-21T06:53:37.063Z,103899.00
2019-03-21T06:55:12.448Z,103910.00
2019-03-21T06:56:47.828Z,103927.00
2019-03-21T06:58:24.181Z,103927.00
2019-03-21T06:59:59.572Z,103922.00
2019-03-21T07:01:34.951Z,103921.00
2019-03-21T07:03:10.333Z,103922.00
2019-03-21T07:04:45.724Z,103924.00
2019-03-21T07:06:21.394Z,103916.00
2019-03-21T07:07:56.775Z,103916.00
2019-03-21T07:09:32.163Z,103923.00
2019-03-21T07:11:07.544Z,103911.00
2019-03-21T07:12:42.916Z,103912.00
2019-03-21T07:14:18.296Z,103912.00
2019-03-21T07:15:53.694Z,103928.00
2019-03-21T07:17:29.067Z,103916.00
2019-03-21T07:19:04.445Z,103927.00
2019-03-21T07:20:39.830Z,103927.00
2019-03-21T07:22:15.207Z,103931.00
2019-03-21T07:23:51.600Z,103930.00
2019-03-21T07:25:27.023Z,103939.00
2019-03-21T07:27:03.352Z,103935.00
2019-03-21T07:28:38.812Z,103916.00
2019-03-21T07:30:15.736Z,103934.00
2019-03-21T07:31:51.112Z,103943.00
2019-03-21T07:33:27.456Z,103940.00
2019-03-21T07:35:02.843Z,103938.00
2019-03-21T07:36:38.220Z,103952.00
2019-03-21T07:38:13.851Z,103954.00
2019-03-21T07:39:49.235Z,103951.00
2019-03-21T07:41:24.926Z,103952.00
2019-03-21T07:43:00.321Z,103960.00
2019-03-21T07:44:35.711Z,103961.00
2019-03-21T07:46:11.091Z,103951.00
2019-03-21T07:47:46.463Z,103960.00
2019-03-21T07:49:21.850Z,103961.00
2019-03-21T07:50:57.251Z,103960.00
2019-03-21T07:52:32.622Z,103966.00
2019-03-21T07:54:08.009Z,103965.00
2019-03-21T07:55:43.397Z,103973.00
2019-03-21T07:57:18.782Z,103972.00
2019-03-21T07:58:54.163Z,103977.00
2019-03-21T08:00:29.549Z,103979.00
2019-03-21T08:02:05.063Z,103987.00
2019-03-21T08:03:40.433Z,103984.00
2019-03-21T08:05:16.452Z,103984.00
2019-03-21T08:06:51.827Z,103990.00
2019-03-21T08:08:27.214Z,103992.00
2019-03-21T08:10:02.604Z,103996.00
2019-03-21T08:11:37.980Z,103993.00
2019-03-21T08:13:13.388Z,103989.00
2019-03-21T08:14:48.758Z,103990.00
2019-03-21T08:16:24.722Z,103994.00
2019-03-21T08:18:02.693Z,103994.00
2019-03-21T08:19:37.230Z,103999.00
2019-03-21T08:21:14.197Z,104001.00
2019-03-21T08:22:49.745Z,104010.00
2019-03-21T08:24:25.508Z,104002.00
2019-03-21T08:26:01.583Z,104001.00
2019-03-21T08:27:37.543Z,103996.00
2019-03-21T08:29:12.944Z,104014.00
2019-03-21T08:31:11.568Z,104012.00
2019-03-21T08:32:46.952Z,104010.00
2019-03-21T08:34:22.336Z,104006.00
2019-03-21T08:35:57.727Z,104008.00
2019-03-21T08:37:33.191Z,104007.00
2019-03-21T08:39:09.233Z,104012.00
2019-03-21T08:40:44.631Z,104009.00
2019-03-21T08:42:20.014Z,103999.00
2019-03-21T08:43:55.833Z,103993.00
2019-03-21T08:45:31.217Z,103994.00
2019-03-21T08:47:06.598Z,103996.00
2019-03-21T08:48:41.978Z,103999.00
2019-03-21T08:50:17.645Z,103995.00
2019-03-21T08:51:53.018Z,103999.00
2019-03-21T08:53:28.401Z,104008.00
2019-03-21T08:55:06.591Z,104007.00
2019-03-21T08:56:41.979Z,104005.00
2019-03-21T08:58:18.431Z,104011.00
2019-03-21T08:59:53.830Z,104013.00
2019-03-21T09:01:30.193Z,104003.00
2019-03-21T09:03:05.917Z,104012.00
2019-03-21T09:04:41.296Z,104010.00
2019-03-21T09:06:16.678Z,104007.00
2019-03-21T09:07:52.092Z,104012.00
2019-03-21T09:09:28.608Z,104018.00
2019-03-21T09:11:03.998Z,104015.00
2019-03-21T09:12:39.383Z,104020.00
2019-03-21T09:14:14.756Z,104020.00
2019-03-21T09:15:50.146Z,104019.00
2019-03-21T09:17:25.535Z,104025.00
2019-03-21T09:19:00.921Z,104019.00
2019-03-21T09:20:36.305Z,104020.00
2019-03-21T09:22:11.699Z,104018.00
2019-03-21T09:23:47.341Z,104015.00
2019-03-21T09:25:22.720Z,104020.00
2019-03-21T09:26:59.243Z,104020.00
2019-03-21T09:28:34.618Z,104023.00
2019-03-21T09:30:15.166Z,104031.00
2019-03-21T09:31:50.556Z,104031.00
2019-03-21T09:33:25.929Z,104023.00
2019-03-21T09:35:01.310Z,104032.00
2019-03-21T09:36:36.705Z,104030.00
2019-03-21T09:38:12.104Z,104025.00
2019-03-21T09:39:47.815Z,104026.00
2019-03-21T09:41:23.213Z,104026.00
2019-03-21T09:42:59.726Z,104023.00
2019-03-21T09:44:35.103Z,104023.00
2019-03-21T09:46:10.493Z,104025.00
2019-03-21T09:47:45.868Z,104024.00
2019-03-21T09:49:21.245Z,104027.00
2019-03-21T09:50:56.899Z,104026.00
2019-03-21T09:52:32.282Z,104026.00
2019-03-21T09:54:09.950Z,104025.00
2019-03-21T09:55:44.734Z,104030.00
2019-03-21T09:57:20.117Z,104021.00
2019-03-21T09:58:55.745Z,104026.00
2019-03-21T10:00:37.029Z,104027.00
2019-03-21T10:02:12.416Z,104018.00
2019-03-21T10:03:47.800Z,104030.00
2019-03-21T10:05:23.184Z,104023.00
2019-03-21T10:06:58.587Z,104020.00
2019-03-21T10:08:33.967Z,104014.00
2019-03-21T10:10:15.041Z,104018.00
2019-03-21T10:11:50.430Z,104017.00
2019-03-21T10:13:25.819Z,104018.00
2019-03-21T10:15:01.516Z,104019.00
2019-03-21T10:16:36.897Z,104012.00
2019-03-21T10:18:12.273Z,104007.00
2019-03-21T10:19:48.485Z,104006.00
2019-03-21T10:21:23.915Z,104013.00
2019-03-21T10:22:59.322Z,104021.00
2019-03-21T10:24:34.713Z,104010.00
2019-03-21T10:26:11.070Z,104017.00
2019-03-21T10:27:46.462Z,104013.00
2019-03-21T10:29:21.844Z,104009.00
2019-03-21T10:30:57.431Z,104010.00
2019-03-21T10:32:32.779Z,104009.00
2019-03-21T10:34:08.159Z,104010.00
2019-03-21T10:35:43.609Z,104013.00
2019-03-21T10:37:19.002Z,104014.00
2019-03-21T10:38:54.382Z,104012.00
2019-03-21T10:40:29.762Z,104011.00
2019-03-21T10:42:05.151Z,104015.00
2019-03-21T10:43:40.533Z,104013.00
2019-03-21T10:45:16.924Z,104008.00
2019-03-21T10:46:52.304Z,104009.00
2019-03-21T10:48:27.692Z,104007.00
2019-03-21T10:50:04.669Z,104003.00
2019-03-21T10:51:40.050Z,104006.00
2019-03-21T10:53:15.718Z,104004.00
2019-03-21T10:54:51.102Z,104008.00
2019-03-21T10:56:26.479Z,103996.00
2019-03-21T10:58:01.873Z,104007.00
2019-03-21T10:59:38.229Z,103994.00
2019-03-21T11:01:13.946Z,103998.00
2019-03-21T11:02:49.338Z,103992.00
2019-03-21T11:04:24.709Z,103992.00
2019-03-21T11:06:00.358Z,103988.00
2019-03-21T11:07:35.745Z,103983.00
2019-03-21T11:09:11.129Z,103987.00
2019-03-21T11:10:47.336Z,103980.00
2019-03-21T11:12:23.852Z,103986.00
2019-03-21T11:13:59.247Z,103987.00
2019-03-21T11:15:35.336Z,103983.00
2019-03-21T11:17:10.723Z,103983.00
2019-03-21T11:18:46.124Z,103987.00
2019-03-21T11:20:33.282Z,103986.00
2019-03-21T11:22:08.658Z,103972.00
2019-03-21T11:23:44.044Z,103978.00
2019-03-21T11:25:19.423Z,103971.00
2019-03-21T11:26:54.802Z,103969.00
2019-03-21T11:28:30.188Z,103974.00
2019-03-21T11:30:16.044Z,103971.00
2019-03-21T11:31:45.467Z,103965.00
2019-03-21T11:33:20.841Z,103965.00
2019-03-21T11:34:56.467Z,103963.00
2019-03-21T11:36:38.316Z,103956.00
2019-03-21T11:38:09.986Z,103944.00
2019-03-21T11:39:45.375Z,103941.00
2019-03-21T11:41:20.761Z,103943.00
2019-03-21T11:42:56.775Z,103936.00
2019-03-21T11:44:33.128Z,103928.00
2019-03-21T11:46:08.507Z,103928.00
2019-03-21T11:47:43.896Z,103912.00
2019-03-21T11:49:19.274Z,103912.00
2019-03-21T11:50:54.652Z,103909.00
2019-03-21T11:52:30.025Z,103908.00
2019-03-21T11:54:06.393Z,103903.00
2019-03-21T11:55:41.776Z,103906.00
2019-03-21T11:57:17.392Z,103901.00
2019-03-21T11:58:52.795Z,103904.00
2019-03-21T12:00:29.206Z,103900.00
2019-03-21T12:02:04.587Z,103891.00
2019-03-21T12:03:39.964Z,103891.00
2019-03-21T12:05:15.424Z,103887.00
2019-03-21T12:06:50.817Z,103883.00
2019-03-21T12:08:26.205Z,103887.00
2019-03-21T12:10:01.607Z,103878.00
2019-03-21T12:11:36.986Z,103875.00
2019-03-21T12:13:12.370Z,103876.00
2019-03-21T12:14:47.757Z,103877.00
2019-03-21T12:16:23.131Z,103867.00
2019-03-21T12:17:58.522Z,103880.00
2019-03-21T12:19:33.898Z,103876.00
2019-03-21T12:21:09.556Z,103876.00
2019-03-21T12:22:47.237Z,103867.00
2019-03-21T12:24:22.062Z,103870.00
2019-03-21T12:25:57.401Z,103871.00
2019-03-21T12:27:32.776Z,103871.00
2019-03-21T12:29:08.157Z,103861.00
2019-03-21T12:30:43.611Z,103871.00
2019-03-21T12:32:19.358Z,103868.00
2019-03-21T12:33:55.118Z,103861.00
2019-03-21T12:35:30.513Z,103858.00
2019-03-21T12:37:05.887Z,103855.00
2019-03-21T12:38:42.246Z,103855.00
2019-03-21T12:40:17.630Z,103859.00
2019-03-21T12:41:53.007Z,103857.00
2019-03-21T12:43:28.382Z,103853.00
2019-03-21T12:45:06.127Z,103853.00
2019-03-21T12:46:41.772Z,103857.00
2019-03-21T12:48:17.161Z,103843.00
2019-03-21T12:49:52.542Z,103842.00
2019-03-21T12:51:27.924Z,103834.00
2019-03-21T12:53:03.373Z,103839.00
2019-03-21T12:54:39.955Z,103839.00
2019-03-21T12:56:15.340Z,103833.00
2019-03-21T12:57:51.061Z,103837.00
2019-03-21T12:59:26.448Z,103833.00
2019-03-21T13:01:01.837Z,103833.00
2019-03-21T13:02:37.221Z,103830.00
2019-03-21T13:04:12.610Z,103823.00
2019-03-21T13:05:47.998Z,103832.00
2019-03-21T13:07:23.376Z,103833.00
2019-03-21T13:08:58.749Z,103828.00
2019-03-21T13:10:34.139Z,103829.00
2019-03-21T13:12:10.168Z,103822.00
2019-03-21T13:13:45.554Z,103812.00
2019-03-21T13:15:29.432Z,103814.00
2019-03-21T13:16:58.014Z,103820.00
2019-03-21T13:18:33.392Z,103809.00
2019-03-21T13:20:08.914Z,103808.00
2019-03-21T13:21:44.310Z,103813.00
2019-03-21T13:23:19.685Z,103808.00
2019-03-21T13:24:55.062Z,103806.00
2019-03-21T13:26:30.446Z,103802.00
2019-03-21T13:28:06.332Z,103800.00
2019-03-21T13:29:41.712Z,103799.00
2019-03-21T13:31:17.120Z,103795.00
2019-03-21T13:32:52.504Z,103800.00
2019-03-21T13:34:27.897Z,103795.00
2019-03-21T13:36:03.262Z,103793.00
2019-03-21T13:37:38.651Z,103791.00
2019-03-21T13:39:14.029Z,103788.00
2019-03-21T13:40:49.415Z,103789.00
2019-03-21T13:42:24.805Z,103779.00
2019-03-21T13:44:00.186Z,103775.00
2019-03-21T13:45:35.574Z,103775.00
2019-03-21T13:47:12.394Z,103769.00
2019-03-21T13:48:47.776Z,103770.00
2019-03-21T13:50:23.154Z,103764.00
2019-03-21T13:51:58.541Z,103761.00
2019-03-21T13:53:33.923Z,103752.00
2019-03-21T13:55:11.774Z,103761.00
2019-03-21T13:56:47.407Z,103756.00
2019-03-21T13:58:23.047Z,103751.00
2019-03-21T13:59:58.436Z,103745.00
2019-03-21T14:01:33.809Z,103753.00
2019-03-21T14:03:09.200Z,103743.00
2019-03-21T14:04:44.572Z,103733.00
2019-03-21T14:06:19.943Z,103741.00
2019-03-21T14:07:55.342Z,103743.00
2019-03-21T14:09:30.733Z,103738.00
2019-03-21T14:11:06.171Z,103731.00
2019-03-21T14:12:41.555Z,103737.00
2019-03-21T14:14:16.966Z,103735.00
2019-03-21T14:15:52.338Z,103739.00
2019-03-21T14:17:27.722Z,103736.00
2019-03-21T14:19:03.104Z,103728.00
2019-03-21T14:20:38.473Z,103730.00
2019-03-21T14:22:13.855Z,103727.00
2019-03-21T14:23:49.227Z,103713.00
2019-03-21T14:25:24.604Z,103714.00
2019-03-21T14:26:59.982Z,103718.00
2019-03-21T14:28:35.370Z,103718.00
2019-03-21T14:30:14.819Z,103720.00
2019-03-21T14:31:50.207Z,103715.00
2019-03-21T14:33:25.601Z,103710.00
2019-03-21T14:35:00.975Z,103709.00
2019-03-21T14:36:36.348Z,103702.00
2019-03-21T14:38:13.362Z,103700.00
2019-03-21T14:39:48.836Z,103702.00
2019-03-21T14:41:24.207Z,103704.00
2019-03-21T14:42:59.588Z,103700.00
2019-03-21T14:44:34.973Z,103701.00
2019-03-21T14:46:10.344Z,103702.00
2019-03-21T14:47:46.009Z,103695.00
2019-03-21T14:49:21.385Z,103693.00
2019-03-21T14:50:56.759Z,103695.00
2019-03-21T14:52:32.142Z,103699.00
2019-03-21T14:54:07.519Z,103696.00
2019-03-21T14:55:47.486Z,103698.00
2019-03-21T14:57:20.312Z,103692.00
2019-03-21T14:58:55.707Z,103694.00
2019-03-21T15:00:31.072Z,103687.00
2019-03-21T15:02:06.461Z,103686.00
2019-03-21T15:03:41.841Z,103688.00
2019-03-21T15:05:17.911Z,103691.00
2019-03-21T15:06:53.285Z,103686.00
2019-03-21T15:08:28.667Z,103688.00
2019-03-21T15:10:06.788Z,103686.00
2019-03-21T15:11:42.267Z,103689.00
2019-03-21T15:13:17.975Z,103691.00
2019-03-21T15:14:53.335Z,103688.00
2019-03-21T15:16:29.596Z,103691.00
2019-03-21T15:18:04.986Z,103692.00
2019-03-21T15:19:41.406Z,103693.00
2019-03-21T15:21:17.354Z,103699.00
2019-03-21T15:22:52.742Z,103693.00
2019-03-21T15:24:28.111Z,103690.00
2019-03-21T15:26:03.562Z,103694.00
2019-03-21T15:27:39.274Z,103689.00
2019-03-21T15:29:14.647Z,103688.00
2019-03-21T15:30:50.023Z,103683.00
2019-03-21T15:32:25.398Z,103687.00
2019-03-21T15:34:01.034Z,103691.00
2019-03-21T15:35:36.400Z,103693.00
2019-03-21T15:37:11.792Z,103694.00
2019-03-21T15:38:48.304Z,103696.00
2019-03-21T15:40:23.676Z,103690.00
2019-03-21T15:41:59.138Z,103688.00
2019-03-21T15:43:34.535Z,103689.00
2019-03-21T15:45:22.344Z,103692.00
2019-03-21T15:46:50.985Z,103692.00
2019-03-21T15:48:26.624Z,103685.00
2019-03-21T15:50:02.978Z,103689.00
2019-03-21T15:51:38.356Z,103681.00
2019-03-21T15:53:13.755Z,103683.00
2019-03-21T15:54:49.137Z,103681.00
2019-03-21T15:56:24.526Z,103687.00
2019-03-21T15:57:59.903Z,103676.00
2019-03-21T15:59:35.296Z,103679.00
2019-03-21T16:01:10.672Z,103676.00
2019-03-21T16:02:46.053Z,103686.00
2019-03-21T16:04:21.449Z,103686.00
2019-03-21T16:05:56.866Z,103686.00
2019-03-21T16:07:32.248Z,103685.00
2019-03-21T16:09:08.207Z,103684.00
2019-03-21T16:10:43.584Z,103680.00
2019-03-21T16:12:20.074Z,103687.00
2019-03-21T16:13:55.467Z,103682.00
2019-03-21T16:15:30.844Z,103676.00
2019-03-21T16:17:06.219Z,103680.00
2019-03-21T16:18:41.605Z,103675.00
2019-03-21T16:20:16.980Z,103686.00
2019-03-21T16:21:52.357Z,103683.00
2019-03-21T16:23:27.734Z,103683.00
2019-03-21T16:25:03.672Z,103679.00
2019-03-21T16:26:39.060Z,103680.00
2019-03-21T16:28:14.426Z,103679.00
2019-03-21T16:29:50.581Z,103679.00
2019-03-21T16:31:25.973Z,103666.00
2019-03-21T16:33:01.362Z,103675.00
2019-03-21T16:34:37.017Z,103675.00
2019-03-21T16:36:12.401Z,103658.00
2019-03-21T16:37:47.776Z,103679.00
2019-03-21T16:39:23.158Z,103671.00
2019-03-21T16:40:58.535Z,103668.00
2019-03-21T16:42:33.919Z,103673.00
2019-03-21T16:44:09.316Z,103670.00
2019-03-21T16:45:44.697Z,103673.00
2019-03-21T16:47:20.075Z,103667.00
2019-03-21T16:48:55.452Z,103667.00
2019-03-21T16:50:30.833Z,103669.00
2019-03-21T16:52:06.986Z,103659.00
2019-03-21T16:53:43.859Z,103664.00
2019-03-21T16:55:19.455Z,103669.00
2019-03-21T16:56:54.828Z,103667.00
2019-03-21T16:58:30.211Z,103671.00
2019-03-21T17:00:18.263Z,103670.00
2019-03-21T17:01:53.613Z,103676.00
2019-03-21T17:03:29.253Z,103666.00
2019-03-21T17:05:06.975Z,103667.00
2019-03-21T17:06:43.325Z,103677.00
2019-03-21T17:08:18.721Z,103677.00
2019-03-21T17:09:54.113Z,103673.00
2019-03-21T17:11:29.496Z,103677.00
2019-03-21T17:13:05.118Z,103678.00
2019-03-21T17:14:41.713Z,103685.00
2019-03-21T17:16:17.094Z,103682.00
2019-03-21T17:17:53.238Z,103681.00
2019-03-21T17:19:28.644Z,103685.00
2019-03-21T17:21:04.356Z,103682.00
2019-03-21T17:22:39.814Z,103683.00
2019-03-21T17:24:15.224Z,103681.00
2019-03-21T17:25:50.583Z,103679.00
2019-03-21T17:27:26.029Z,103679.00
2019-03-21T17:29:01.411Z,103677.00
2019-03-21T17:30:37.082Z,103679.00
2019-03-21T17:32:12.721Z,103690.00
2019-03-21T17:33:48.105Z,103686.00
2019-03-21T17:35:24.186Z,103689.00
2019-03-21T17:36:59.644Z,103690.00
2019-03-21T17:38:35.024Z,103695.00
2019-03-21T17:40:13.894Z,103691.00
2019-03-21T17:41:49.517Z,103691.00
2019-03-21T17:43:24.895Z,103690.00
2019-03-21T17:45:00.295Z,103696.00
2019-03-21T17:46:35.682Z,103696.00
2019-03-21T17:48:11.063Z,103701.00
2019-03-21T17:49:46.451Z,103702.00
2019-03-21T17:51:22.090Z,103701.00
2019-03-21T17:52:57.819Z,103698.00
2019-03-21T17:54:41.288Z,103705.00
2019-03-21T17:56:11.261Z,103701.00
2019-03-21T17:57:46.637Z,103701.00
2019-03-21T17:59:22.024Z,103703.00
2019-03-21T18:00:57.429Z,103704.00
2019-03-21T18:02:32.946Z,103708.00
2019-03-21T18:04:08.279Z,103698.00
2019-03-21T18:05:43.674Z,103704.00
2019-03-21T18:07:19.070Z,103704.00
2019-03-21T18:08:55.420Z,103700.00
2019-03-21T18:10:35.353Z,103706.00
2019-03-21T18:12:10.726Z,103704.00
2019-03-21T18:13:46.108Z,103709.00
2019-03-21T18:15:21.602Z,103709.00
2019-03-21T18:16:56.979Z,103711.00
2019-03-21T18:18:32.629Z,103708.00